createdAt,value
2023-03-26T00:00:38.111Z,7.94
2023-03-26T00:04:00.240Z,7.89
2023-03-26T00:07:22.632Z,7.81
2023-03-26T00:10:47.200Z,7.65
2023-03-26T00:14:13.560Z,7.65
2023-03-26T00:17:35.593Z,7.65
2023-03-26T00:20:59.496Z,7.76
2023-03-26T00:24:21.474Z,7.92
2023-03-26T00:27:53.840Z,8.10
2023-03-26T00:31:18.796Z,8.24
2023-03-26T00:34:41.375Z,8.25
2023-03-26T00:38:04.603Z,8.11
2023-03-26T00:41:30.733Z,8.00
2023-03-26T00:44:55.335Z,7.88
2023-03-26T00:48:18.996Z,7.80
2023-03-26T00:51:42.336Z,7.87
2023-03-26T00:55:04.561Z,7.82
2023-03-26T00:58:34.021Z,7.74
2023-03-26T01:02:00.210Z,7.64
2023-03-26T01:05:34.284Z,7.66
2023-03-26T01:09:00.496Z,7.66
2023-03-26T01:12:27.848Z,7.72
2023-03-26T01:15:53.041Z,7.60
2023-03-26T01:19:45.647Z,7.37
2023-03-26T01:23:22.493Z,7.18
2023-03-26T01:27:17.808Z,7.25
2023-03-26T01:31:13.613Z,7.31
2023-03-26T01:35:24.720Z,7.14
2023-03-26T01:39:25.202Z,7.14
2023-03-26T01:43:13.390Z,7.25
2023-03-26T01:46:43.856Z,7.35
2023-03-26T01:50:09.879Z,7.52
2023-03-26T01:53:42.343Z,7.59
2023-03-26T01:57:28.286Z,7.81
2023-03-26T02:01:27.088Z,7.88
2023-03-26T02:05:27.036Z,7.94
2023-03-26T02:09:08.036Z,7.65
2023-03-26T02:12:36.646Z,7.73
2023-03-26T02:16:15.089Z,7.87
2023-03-26T02:19:43.522Z,7.92
2023-03-26T02:23:08.935Z,7.83
2023-03-26T02:26:35.823Z,7.97
2023-03-26T02:30:30.321Z,7.94
2023-03-26T02:34:02.018Z,8.04
2023-03-26T02:37:40.161Z,8.04
2023-03-26T02:41:15.774Z,8.04
2023-03-26T02:45:00.494Z,8.21
2023-03-26T02:48:46.148Z,7.97
2023-03-26T02:52:20.015Z,8.11
2023-03-26T02:55:49.711Z,8.06
2023-03-26T02:59:22.878Z,8.06
2023-03-26T03:03:07.808Z,8.07
2023-03-26T03:07:02.333Z,8.06
2023-03-26T03:10:34.147Z,8.23
2023-03-26T03:14:20.620Z,7.97
2023-03-26T03:17:47.185Z,8.01
2023-03-26T03:21:12.416Z,8.11
2023-03-26T03:24:41.850Z,8.13
2023-03-26T03:28:05.181Z,7.99
2023-03-26T03:31:32.575Z,8.12
2023-03-26T03:35:05.123Z,8.02
2023-03-26T03:38:49.023Z,8.18
2023-03-26T03:42:33.123Z,8.06
2023-03-26T03:46:05.406Z,8.02
2023-03-26T03:49:34.249Z,8.06
2023-03-26T03:53:08.105Z,8.04
2023-03-26T03:56:32.835Z,8.19
2023-03-26T04:00:26.498Z,8.19
2023-03-26T04:04:17.830Z,8.14
2023-03-26T04:08:25.761Z,7.94
2023-03-26T04:11:55.844Z,7.93
2023-03-26T04:15:33.272Z,7.94
2023-03-26T04:19:09.318Z,7.97
2023-03-26T04:22:39.203Z,7.77
2023-03-26T04:26:21.015Z,7.75
2023-03-26T04:30:19.221Z,7.81
2023-03-26T04:34:08.216Z,7.93
2023-03-26T04:37:49.190Z,7.99
2023-03-26T04:41:23.508Z,7.95
2023-03-26T04:44:59.717Z,7.83
2023-03-26T04:48:30.427Z,7.88
2023-03-26T04:51:53.457Z,7.91
2023-03-26T04:55:51.942Z,7.89
2023-03-26T04:59:41.338Z,7.89
2023-03-26T05:03:14.365Z,7.81
2023-03-26T05:06:43.071Z,7.89
2023-03-26T05:10:16.937Z,8.13
2023-03-26T05:14:11.785Z,7.95
2023-03-26T05:17:43.020Z,7.84
2023-03-26T05:21:26.574Z,7.75
2023-03-26T05:24:48.915Z,7.97
2023-03-26T05:28:11.317Z,8.02
2023-03-26T05:31:48.530Z,7.95
2023-03-26T05:35:21.713Z,7.96
2023-03-26T05:38:47.582Z,7.90
2023-03-26T05:42:14.466Z,7.92
2023-03-26T05:46:10.604Z,7.95
2023-03-26T05:49:35.255Z,7.99
2023-03-26T05:52:57.405Z,7.93
2023-03-26T05:56:45.178Z,8.10
2023-03-26T06:00:27.677Z,8.07
2023-03-26T06:03:53.362Z,7.77
2023-03-26T06:07:17.976Z,7.81
2023-03-26T06:10:50.594Z,7.80
2023-03-26T06:14:12.457Z,7.78
2023-03-26T06:17:42.520Z,7.87
2023-03-26T06:21:22.761Z,7.82
2023-03-26T06:24:49.046Z,7.83
2023-03-26T06:28:30.297Z,7.53
2023-03-26T06:32:19.125Z,7.61
2023-03-26T06:35:56.677Z,7.50
2023-03-26T06:39:20.646Z,7.59
2023-03-26T06:43:09.536Z,7.56
2023-03-26T06:46:54.159Z,7.64
2023-03-26T06:51:02.670Z,7.65
2023-03-26T06:54:53.712Z,7.80
2023-03-26T06:58:47.957Z,7.77
2023-03-26T07:02:28.875Z,7.79
2023-03-26T07:06:16.254Z,8.12
2023-03-26T07:09:58.358Z,8.28
2023-03-26T07:13:52.670Z,8.46
2023-03-26T07:17:32.936Z,8.69
2023-03-26T07:20:59.578Z,8.76
2023-03-26T07:24:26.251Z,8.82
2023-03-26T07:28:36.139Z,8.82
2023-03-26T07:33:04.528Z,9.06
2023-03-26T07:36:53.378Z,9.11
2023-03-26T07:41:05.839Z,9.23
2023-03-26T07:46:07.919Z,9.23
2023-03-26T07:49:49.260Z,9.30
2023-03-26T07:53:21.009Z,9.63
2023-03-26T07:57:04.813Z,9.95
2023-03-26T08:05:20.633Z,10.54
2023-03-26T08:09:40.073Z,10.26
2023-03-26T08:13:58.189Z,10.12
2023-03-26T08:17:55.264Z,10.06
2023-03-26T08:26:48.132Z,9.77
2023-03-26T08:30:26.740Z,9.72
2023-03-26T08:33:50.138Z,9.56
2023-03-26T08:37:13.658Z,9.56
2023-03-26T08:41:12.229Z,9.70
2023-03-26T08:45:31.490Z,9.50
2023-03-26T08:49:40.474Z,9.52
2023-03-26T08:53:43.000Z,9.60
2023-03-26T08:57:35.657Z,9.78
2023-03-26T09:01:12.477Z,10.10
2023-03-26T09:04:40.229Z,10.64
2023-03-26T09:08:54.395Z,10.93
2023-03-26T09:12:44.305Z,11.01
2023-03-26T09:16:44.313Z,11.57
2023-03-26T09:20:31.801Z,12.00
2023-03-26T09:24:35.998Z,12.05
2023-03-26T09:28:54.872Z,12.48
2023-03-26T09:32:58.239Z,12.67
2023-03-26T09:37:02.443Z,12.49
2023-03-26T09:41:38.117Z,12.31
2023-03-26T09:45:49.073Z,12.92
2023-03-26T09:49:48.525Z,12.53
2023-03-26T09:53:56.105Z,12.26
2023-03-26T09:57:59.951Z,12.01
2023-03-26T10:01:44.199Z,12.22
2023-03-26T10:05:25.011Z,12.38
2023-03-26T10:09:34.011Z,12.45
2023-03-26T10:13:30.248Z,12.31
2023-03-26T10:17:45.753Z,12.45
2023-03-26T10:21:29.978Z,12.35
2023-03-26T10:25:32.985Z,12.80
2023-03-26T10:29:26.242Z,13.05
2023-03-26T10:32:57.565Z,13.24
2023-03-26T10:37:13.244Z,13.48
2023-03-26T10:41:16.710Z,13.72
2023-03-26T10:45:02.963Z,13.69
2023-03-26T10:49:09.324Z,13.67
2023-03-26T10:53:23.524Z,12.29
2023-03-26T10:56:49.382Z,12.27
2023-03-26T11:00:25.457Z,12.70
2023-03-26T11:03:54.351Z,12.63
2023-03-26T11:07:43.401Z,13.37
2023-03-26T11:11:49.904Z,13.25
2023-03-26T11:15:45.093Z,12.83
2023-03-26T11:19:38.642Z,12.22
2023-03-26T11:23:37.305Z,13.15
2023-03-26T11:27:41.130Z,13.28
2023-03-26T11:32:00.568Z,13.09
2023-03-26T11:35:41.009Z,12.67
2023-03-26T11:39:23.066Z,12.59
2023-03-26T11:42:46.769Z,13.11
2023-03-26T11:46:20.374Z,12.57
2023-03-26T11:49:45.505Z,12.51
2023-03-26T11:53:17.645Z,11.88
2023-03-26T11:57:08.204Z,11.76
2023-03-26T12:00:31.170Z,11.99
2023-03-26T12:04:13.134Z,12.36
2023-03-26T12:07:35.606Z,12.42
2023-03-26T12:11:12.181Z,12.88
2023-03-26T12:14:35.457Z,13.47
2023-03-26T12:18:17.425Z,13.31
2023-03-26T12:21:49.093Z,13.22
2023-03-26T12:25:33.736Z,13.27
2023-03-26T12:28:55.799Z,13.12
2023-03-26T12:32:18.148Z,13.03
2023-03-26T12:35:46.981Z,13.31
2023-03-26T12:40:10.631Z,13.44
2023-03-26T12:44:55.340Z,13.52
2023-03-26T12:48:01.069Z,13.79
2023-03-26T12:51:34.042Z,13.85
2023-03-26T12:55:26.582Z,13.74
2023-03-26T12:59:01.248Z,13.46
2023-03-26T13:03:10.895Z,13.56
2023-03-26T13:07:01.911Z,14.28
2023-03-26T13:11:01.404Z,14.62
2023-03-26T13:14:46.813Z,14.50
2023-03-26T13:18:56.875Z,13.51
2023-03-26T13:23:08.852Z,12.22
2023-03-26T13:26:52.371Z,11.94
2023-03-26T13:30:41.466Z,11.81
2023-03-26T13:34:29.741Z,11.87
2023-03-26T13:38:09.828Z,13.04
2023-03-26T13:41:43.389Z,14.14
2023-03-26T13:45:41.721Z,14.56
2023-03-26T13:49:36.895Z,15.07
2023-03-26T13:53:09.706Z,13.57
2023-03-26T13:56:52.206Z,11.14
2023-03-26T14:00:27.363Z,10.35
2023-03-26T14:04:17.662Z,9.73
2023-03-26T14:08:22.620Z,9.66
2023-03-26T14:11:56.699Z,9.81
2023-03-26T14:15:48.235Z,10.08
2023-03-26T14:19:40.282Z,10.48
2023-03-26T14:23:14.966Z,10.88
2023-03-26T14:27:02.493Z,10.73
2023-03-26T14:30:54.335Z,10.80
2023-03-26T14:34:39.470Z,10.97
2023-03-26T14:38:43.742Z,11.20
2023-03-26T14:42:43.505Z,11.19
2023-03-26T14:46:46.774Z,11.20
2023-03-26T14:50:54.430Z,11.63
2023-03-26T14:54:33.510Z,12.00
2023-03-26T14:58:39.444Z,12.08
2023-03-26T15:03:02.965Z,12.00
2023-03-26T15:07:25.739Z,11.62
2023-03-26T15:11:43.000Z,10.68
2023-03-26T15:16:08.870Z,10.02
2023-03-26T15:19:55.537Z,9.55
2023-03-26T15:23:48.882Z,9.20
2023-03-26T15:28:16.766Z,9.32
2023-03-26T15:32:34.739Z,9.38
2023-03-26T15:36:21.412Z,9.34
2023-03-26T15:40:09.738Z,9.47
2023-03-26T15:44:24.713Z,9.54
2023-03-26T15:48:13.958Z,9.53
2023-03-26T15:52:06.212Z,9.83
2023-03-26T15:55:45.750Z,9.67
2023-03-26T16:00:23.087Z,9.89
2023-03-26T16:04:15.285Z,10.02
2023-03-26T16:07:51.224Z,9.90
2023-03-26T16:11:54.821Z,9.93
2023-03-26T16:15:32.012Z,9.81
2023-03-26T16:19:20.623Z,9.81
2023-03-26T16:23:01.570Z,9.63
2023-03-26T16:26:37.786Z,9.78
2023-03-26T16:30:31.686Z,9.76
2023-03-26T16:34:26.143Z,9.77
2023-03-26T16:38:04.648Z,9.78
2023-03-26T16:41:31.699Z,9.82
2023-03-26T16:57:43.120Z,10.10
2023-03-26T17:01:22.620Z,10.04
2023-03-26T17:04:51.588Z,9.90
2023-03-26T17:08:45.846Z,9.97
2023-03-26T17:12:31.004Z,9.55
2023-03-26T17:16:27.675Z,9.56
2023-03-26T17:20:36.789Z,9.51
2023-03-26T17:24:23.878Z,9.43
2023-03-26T17:28:42.455Z,9.45
2023-03-26T17:32:15.096Z,9.43
2023-03-26T17:35:49.622Z,9.48
2023-03-26T17:39:43.513Z,9.37
2023-03-26T17:43:48.313Z,9.14
2023-03-26T17:47:39.507Z,8.98
2023-03-26T17:51:58.399Z,8.88
2023-03-26T17:55:30.626Z,8.77
2023-03-26T17:59:11.899Z,8.66
2023-03-26T18:02:43.293Z,8.69
2023-03-26T18:06:28.818Z,8.71
2023-03-26T18:10:12.821Z,8.71
2023-03-26T18:13:59.455Z,8.62
2023-03-26T18:17:22.014Z,8.50
2023-03-26T18:20:54.607Z,8.41
2023-03-26T18:24:29.304Z,8.36
2023-03-26T18:27:52.147Z,8.44
2023-03-26T18:31:26.452Z,8.44
2023-03-26T18:35:14.254Z,8.46
2023-03-26T18:38:38.588Z,8.48
2023-03-26T18:42:22.523Z,8.47
2023-03-26T18:45:54.288Z,8.46
2023-03-26T18:49:18.515Z,8.36
2023-03-26T18:52:41.868Z,8.40
2023-03-26T18:56:31.744Z,8.36
2023-03-26T19:00:19.297Z,8.35
2023-03-26T19:03:43.878Z,8.27
2023-03-26T19:07:25.032Z,8.30
2023-03-26T19:10:54.712Z,8.18
2023-03-26T19:14:25.205Z,8.23
2023-03-26T19:18:06.996Z,8.17
2023-03-26T19:21:29.214Z,8.22
2023-03-26T19:24:58.024Z,8.18
2023-03-26T19:28:25.958Z,8.24
2023-03-26T19:31:54.429Z,8.13
2023-03-26T19:35:24.150Z,8.13
2023-03-26T19:38:52.079Z,8.07
2023-03-26T19:42:44.070Z,8.12
2023-03-26T19:46:13.975Z,8.02
2023-03-26T19:49:58.960Z,8.04
2023-03-26T19:53:53.765Z,8.05
2023-03-26T19:57:15.720Z,8.02
2023-03-26T20:00:43.406Z,8.05
2023-03-26T20:04:11.580Z,7.95
2023-03-26T20:07:40.617Z,8.01
2023-03-26T20:11:04.497Z,7.97
2023-03-26T20:14:32.354Z,7.85
2023-03-26T20:17:55.643Z,7.82
2023-03-26T20:21:18.046Z,7.77
2023-03-26T20:24:41.278Z,7.61
2023-03-26T20:28:03.113Z,7.48
2023-03-26T20:31:30.133Z,7.46
2023-03-26T20:34:52.205Z,7.58
2023-03-26T20:38:14.346Z,7.55
2023-03-26T20:41:48.270Z,7.53
2023-03-26T20:45:22.610Z,7.67
2023-03-26T20:48:51.930Z,7.70
2023-03-26T20:52:18.644Z,7.81
2023-03-26T20:55:46.126Z,7.84
2023-03-26T20:59:18.045Z,7.68
2023-03-26T21:02:42.770Z,7.85
2023-03-26T21:06:13.260Z,7.83
2023-03-26T21:09:44.672Z,7.86
2023-03-26T21:13:39.056Z,7.99
2023-03-26T21:17:02.410Z,8.13
2023-03-26T21:20:32.564Z,8.13
2023-03-26T21:24:12.638Z,8.17
2023-03-26T21:27:49.146Z,8.17
2023-03-26T21:31:20.451Z,8.15
2023-03-26T21:34:55.523Z,8.14
2023-03-26T21:38:23.706Z,8.22
2023-03-26T21:42:05.792Z,7.97
2023-03-26T21:45:29.828Z,8.03
2023-03-26T21:48:52.028Z,7.97
2023-03-26T21:52:15.318Z,7.96
2023-03-26T21:56:13.646Z,7.83
2023-03-26T22:00:01.365Z,7.71
2023-03-26T22:03:34.480Z,7.36
2023-03-26T22:07:54.830Z,7.12
2023-03-26T22:11:18.789Z,6.86
2023-03-26T22:14:40.650Z,7.02
2023-03-26T22:18:04.264Z,7.11
2023-03-26T22:21:26.298Z,7.09
2023-03-26T22:24:48.140Z,7.08
2023-03-26T22:28:14.455Z,7.00
2023-03-26T22:31:45.600Z,6.88
2023-03-26T22:35:10.463Z,7.00
2023-03-26T22:38:33.688Z,6.98
2023-03-26T22:41:55.668Z,6.92
2023-03-26T22:45:17.697Z,6.78
2023-03-26T22:48:40.692Z,6.92
2023-03-26T22:52:09.881Z,6.96
2023-03-26T22:55:36.314Z,6.84
2023-03-26T22:58:58.523Z,6.82
2023-03-26T23:02:23.944Z,6.83
2023-03-26T23:06:12.270Z,6.84
2023-03-26T23:09:36.485Z,6.81
2023-03-26T23:12:58.287Z,6.84
2023-03-26T23:16:28.398Z,6.78
2023-03-26T23:19:54.171Z,6.72
2023-03-26T23:23:16.134Z,6.70
2023-03-26T23:26:50.197Z,6.52
2023-03-26T23:30:14.901Z,6.71
2023-03-26T23:33:52.973Z,6.85
2023-03-26T23:37:23.119Z,6.58
2023-03-26T23:41:02.774Z,6.84
2023-03-26T23:44:34.012Z,6.69
2023-03-26T23:47:57.041Z,6.46
2023-03-26T23:51:23.884Z,6.50
2023-03-26T23:55:00.775Z,6.31
2023-03-26T23:58:23.087Z,6.42
